Time;durP1;ratioP1;P1;durP2;ratioP2;P2;SDS_P1;SDS_P2;PMS_P1;PMS_P2;Temp;Humidity;BMP_temperature;BMP_pressure;BME280_temperature;BME280_humidity;BME280_pressure;Samples;Min_cycle;Max_cycle;Signal;HPM_P1;HPM_P2
2022/06/26 00:02:36;;;;;;;8.18;4.70;;;;;;;;;;8355208;28;20033;-85
2022/06/26 00:06:38;;;;;;;5.53;3.80;;;;;;;;;;8362837;28;20037;-86
2022/06/26 00:10:45;;;;;;;6.35;4.07;;;;;;;;;;8358223;28;20049;-85
2022/06/26 00:14:47;;;;;;;8.15;3.95;;;;;;;;;;8360996;28;20045;-85
2022/06/26 00:18:50;;;;;;;6.10;3.97;;;;;;;;;;8363079;28;20609;-85
2022/06/26 00:22:53;;;;;;;7.70;3.90;;;;;;;;;;8363708;28;20049;-84
2022/06/26 00:26:57;;;;;;;7.43;4.13;;;;;;;;;;8369087;28;20045;-86
2022/06/26 00:31:00;;;;;;;8.00;4.22;;;;;;;;;;8375209;28;20049;-87
2022/06/26 00:35:03;;;;;;;5.38;4.15;;;;;;;;;;8363282;28;20113;-87
2022/06/26 00:39:06;;;;;;;5.70;4.10;;;;;;;;;;8336759;28;20588;-86
2022/06/26 00:43:10;;;;;;;7.13;4.28;;;;;;;;;;8337918;28;20053;-87
2022/06/26 00:47:13;;;;;;;7.07;4.20;;;;;;;;;;8334572;28;20045;-87
2022/06/26 00:51:15;;;;;;;8.30;4.50;;;;;;;;;;8335711;28;20107;-87
2022/06/26 00:55:18;;;;;;;7.97;4.28;;;;;;;;;;8329637;28;20049;-86
2022/06/26 00:59:24;;;;;;;6.90;4.20;;;;;;;;;;8329256;28;20249;-86
2022/06/26 01:03:26;;;;;;;6.53;4.45;;;;;;;;;;8327931;28;20489;-85
2022/06/26 01:07:29;;;;;;;6.10;4.07;;;;;;;;;;8312965;28;20490;-84
2022/06/26 01:11:32;;;;;;;8.57;4.07;;;;;;;;;;8325692;28;20056;-82
2022/06/26 01:15:36;;;;;;;6.88;4.38;;;;;;;;;;8321466;28;20045;-83
2022/06/26 01:19:40;;;;;;;9.05;4.10;;;;;;;;;;8328521;28;20058;-82
2022/06/26 01:23:44;;;;;;;6.75;4.40;;;;;;;;;;8325711;28;20045;-82
2022/06/26 01:27:46;;;;;;;8.32;4.70;;;;;;;;;;8324705;28;20429;-82
2022/06/26 01:31:50;;;;;;;6.18;4.50;;;;;;;;;;8325241;28;20049;-84
2022/06/26 01:35:52;;;;;;;6.32;4.32;;;;;;;;;;8327855;28;20469;-83
2022/06/26 01:39:56;;;;;;;5.75;4.35;;;;;;;;;;8335886;28;20099;-84
2022/06/26 01:43:59;;;;;;;5.97;4.32;;;;;;;;;;8344923;28;20404;-82
2022/06/26 01:48:01;;;;;;;6.63;4.30;;;;;;;;;;8339890;28;20045;-83
2022/06/26 01:52:04;;;;;;;8.30;3.92;;;;;;;;;;8337894;28;20107;-84
2022/06/26 01:56:08;;;;;;;7.07;4.35;;;;;;;;;;8333585;28;20058;-83
2022/06/26 02:00:12;;;;;;;10.93;4.50;;;;;;;;;;8343801;28;20107;-84
2022/06/26 02:04:16;;;;;;;7.85;4.15;;;;;;;;;;8333644;28;20041;-84
2022/06/26 02:08:19;;;;;;;11.90;4.50;;;;;;;;;;8328349;28;20049;-83
2022/06/26 02:16:44;;;;;;;7.72;4.55;;;;;;;;;;8323624;28;20069;-83
2022/06/26 02:20:47;;;;;;;9.25;4.40;;;;;;;;;;8325849;28;20042;-85
2022/06/26 02:24:49;;;;;;;7.72;4.72;;;;;;;;;;8333163;28;20071;-90
2022/06/26 02:28:53;;;;;;;5.55;4.20;;;;;;;;;;8345694;28;20440;-88
2022/06/26 02:32:57;;;;;;;5.85;4.28;;;;;;;;;;8339264;28;20037;-88
2022/06/26 02:36:59;;;;;;;7.40;4.65;;;;;;;;;;8347757;28;20480;-89
2022/06/26 02:41:02;;;;;;;7.32;4.47;;;;;;;;;;8340804;28;20056;-84
2022/06/26 02:45:08;;;;;;;12.10;4.43;;;;;;;;;;8342640;28;20523;-83
2022/06/26 02:49:10;;;;;;;5.90;4.50;;;;;;;;;;8337766;28;20041;-86
2022/06/26 02:53:14;;;;;;;5.80;3.97;;;;;;;;;;8341559;28;20053;-86
2022/06/26 02:57:16;;;;;;;9.82;4.70;;;;;;;;;;8337869;28;20095;-84
2022/06/26 03:01:23;;;;;;;6.20;4.70;;;;;;;;;;8332390;28;20047;-84
2022/06/26 03:05:25;;;;;;;5.65;4.50;;;;;;;;;;8330958;28;20409;-84
2022/06/26 03:09:28;;;;;;;6.13;4.32;;;;;;;;;;8333889;28;20422;-83
2022/06/26 03:13:31;;;;;;;9.15;5.45;;;;;;;;;;8319041;28;20061;-83
2022/06/26 03:17:35;;;;;;;5.53;4.50;;;;;;;;;;8323109;28;20049;-83
2022/06/26 03:21:37;;;;;;;7.65;4.30;;;;;;;;;;8329692;28;20482;-84
2022/06/26 03:25:40;;;;;;;7.97;4.75;;;;;;;;;;8326641;28;20547;-84
2022/06/26 03:29:42;;;;;;;7.43;4.70;;;;;;;;;;8332442;28;20044;-84
2022/06/26 03:33:47;;;;;;;8.15;4.82;;;;;;;;;;8330054;28;20053;-84
2022/06/26 03:37:49;;;;;;;8.85;4.78;;;;;;;;;;8331611;28;20416;-84
2022/06/26 03:42:00;;;;;;;6.20;4.55;;;;;;;;;;8332691;28;20046;-85
2022/06/26 03:46:02;;;;;;;8.98;4.63;;;;;;;;;;8324916;28;20038;-84
2022/06/26 03:50:08;;;;;;;6.22;4.57;;;;;;;;;;8322703;28;20037;-84
2022/06/26 03:54:18;;;;;;;9.80;4.85;;;;;;;;;;8328819;28;20128;-84
2022/06/26 03:58:27;;;;;;;8.48;4.80;;;;;;;;;;8328397;28;20124;-83
2022/06/26 04:02:35;;;;;;;7.97;4.63;;;;;;;;;;8338197;28;20474;-83
2022/06/26 04:06:45;;;;;;;7.33;4.70;;;;;;;;;;8328834;28;20378;-83
2022/06/26 04:10:47;;;;;;;7.43;5.00;;;;;;;;;;8323982;28;20048;-82
2022/06/26 04:14:51;;;;;;;7.63;4.97;;;;;;;;;;8333354;28;20393;-84
2022/06/26 04:18:53;;;;;;;7.50;4.70;;;;;;;;;;8331524;28;20045;-83
2022/06/26 04:22:59;;;;;;;7.20;4.72;;;;;;;;;;8324435;28;20042;-82
2022/06/26 04:27:02;;;;;;;7.30;4.40;;;;;;;;;;8328872;28;20397;-82
2022/06/26 04:31:04;;;;;;;6.90;4.22;;;;;;;;;;8334218;28;20045;-82
2022/06/26 04:35:07;;;;;;;8.90;4.32;;;;;;;;;;8328988;28;20107;-84
2022/06/26 04:39:12;;;;;;;7.75;4.20;;;;;;;;;;8314671;28;20106;-84
2022/06/26 04:43:14;;;;;;;6.22;4.38;;;;;;;;;;8317730;28;20413;-84
2022/06/26 04:47:17;;;;;;;8.60;4.85;;;;;;;;;;8328113;28;20049;-86
2022/06/26 04:51:19;;;;;;;6.28;4.38;;;;;;;;;;8331672;28;20108;-82
2022/06/26 04:55:24;;;;;;;7.15;4.72;;;;;;;;;;8328389;28;20084;-85
2022/06/26 04:59:26;;;;;;;6.07;4.18;;;;;;;;;;8326685;28;20400;-85
2022/06/26 05:03:29;;;;;;;7.20;4.18;;;;;;;;;;8330720;28;20125;-85
2022/06/26 05:07:32;;;;;;;5.50;4.30;;;;;;;;;;8329187;28;20041;-84
2022/06/26 05:11:37;;;;;;;7.88;5.72;;;;;;;;;;8328344;28;20136;-84
2022/06/26 05:15:39;;;;;;;6.90;4.07;;;;;;;;;;8325652;28;20071;-85
2022/06/26 05:19:42;;;;;;;8.93;4.55;;;;;;;;;;8324722;28;20118;-87
2022/06/26 05:23:45;;;;;;;5.72;4.38;;;;;;;;;;8327330;28;20433;-85
2022/06/26 05:27:50;;;;;;;9.57;4.22;;;;;;;;;;8322882;28;20080;-82
2022/06/26 05:31:53;;;;;;;5.70;4.25;;;;;;;;;;8325572;28;20034;-84
2022/06/26 05:35:56;;;;;;;5.80;3.72;;;;;;;;;;8330699;28;20057;-85
2022/06/26 05:39:59;;;;;;;6.80;4.10;;;;;;;;;;8328616;28;20076;-84
2022/06/26 05:44:03;;;;;;;7.97;3.95;;;;;;;;;;8323988;28;20493;-84
2022/06/26 05:48:06;;;;;;;7.50;3.88;;;;;;;;;;8337808;28;20060;-85
2022/06/26 05:52:10;;;;;;;5.30;3.80;;;;;;;;;;8335912;28;20049;-84
2022/06/26 05:56:12;;;;;;;6.75;3.78;;;;;;;;;;8339680;28;20486;-84
2022/06/26 06:00:17;;;;;;;6.10;3.75;;;;;;;;;;8335617;28;20045;-84
2022/06/26 06:04:20;;;;;;;8.15;4.10;;;;;;;;;;8343044;28;20048;-83
2022/06/26 06:08:23;;;;;;;5.53;3.58;;;;;;;;;;8329205;28;20061;-84
2022/06/26 06:12:25;;;;;;;5.80;3.33;;;;;;;;;;8334881;28;20055;-84
2022/06/26 06:16:30;;;;;;;5.22;3.80;;;;;;;;;;8334044;28;20067;-84
2022/06/26 06:20:33;;;;;;;6.82;3.42;;;;;;;;;;8343285;28;20044;-85
2022/06/26 06:24:36;;;;;;;6.53;3.50;;;;;;;;;;8333645;28;20041;-84
2022/06/26 06:28:39;;;;;;;4.45;3.10;;;;;;;;;;8332192;28;20041;-82
2022/06/26 06:32:45;;;;;;;10.35;3.55;;;;;;;;;;8330935;28;20124;-84
2022/06/26 06:36:49;;;;;;;7.97;2.90;;;;;;;;;;8344628;28;20049;-82
2022/06/26 06:40:54;;;;;;;6.35;2.90;;;;;;;;;;8335190;28;20404;-89
2022/06/26 06:45:04;;;;;;;7.03;3.20;;;;;;;;;;8345193;28;20481;-85
2022/06/26 06:49:11;;;;;;;5.95;3.30;;;;;;;;;;8337573;28;20105;-85
2022/06/26 06:53:14;;;;;;;5.00;3.10;;;;;;;;;;8332440;28;20489;-86
2022/06/26 06:57:17;;;;;;;5.97;3.20;;;;;;;;;;8334859;28;20191;-86
2022/06/26 07:01:21;;;;;;;6.85;3.42;;;;;;;;;;8333037;28;20428;-89
2022/06/26 07:05:28;;;;;;;7.05;3.20;;;;;;;;;;8323633;28;20045;-90
2022/06/26 07:09:31;;;;;;;5.93;3.35;;;;;;;;;;8333412;28;20103;-87
2022/06/26 07:13:39;;;;;;;5.82;2.97;;;;;;;;;;8337144;28;20180;-93
2022/06/26 07:17:42;;;;;;;6.00;3.00;;;;;;;;;;8340676;28;20045;-89
2022/06/26 07:21:46;;;;;;;5.95;3.17;;;;;;;;;;8352329;28;20049;-87
2022/06/26 07:25:50;;;;;;;3.72;2.50;;;;;;;;;;8352856;28;20065;-86
2022/06/26 07:29:54;;;;;;;5.32;2.67;;;;;;;;;;8349661;28;20895;-91
2022/06/26 07:34:16;;;;;;;5.75;2.80;;;;;;;;;;8346524;28;20397;-86
2022/06/26 07:38:29;;;;;;;3.80;2.67;;;;;;;;;;8330563;28;20049;-83
2022/06/26 07:42:35;;;;;;;5.18;2.95;;;;;;;;;;8343002;28;20042;-88
2022/06/26 07:46:40;;;;;;;5.18;2.90;;;;;;;;;;8326361;28;20052;-86
2022/06/26 07:50:44;;;;;;;4.55;2.83;;;;;;;;;;8328944;28;20465;-84
2022/06/26 07:54:49;;;;;;;5.22;2.80;;;;;;;;;;8316756;28;20136;-86
2022/06/26 07:58:53;;;;;;;4.18;2.60;;;;;;;;;;8329317;28;20048;-84
2022/06/26 08:03:06;;;;;;;4.60;2.67;;;;;;;;;;8330016;28;20077;-85
2022/06/26 08:07:14;;;;;;;7.15;2.60;;;;;;;;;;8327760;28;20417;-85
2022/06/26 08:11:28;;;;;;;5.30;2.45;;;;;;;;;;8324112;28;20041;-87
2022/06/26 08:15:42;;;;;;;3.13;2.20;;;;;;;;;;8327705;28;20077;-86
2022/06/26 08:19:56;;;;;;;6.10;2.70;;;;;;;;;;8325034;28;20049;-85
2022/06/26 08:24:04;;;;;;;5.65;2.50;;;;;;;;;;8308887;28;20052;-84
2022/06/26 08:28:10;;;;;;;4.35;2.25;;;;;;;;;;8324320;28;20058;-86
2022/06/26 08:32:23;;;;;;;4.47;2.50;;;;;;;;;;8344032;28;20473;-86
2022/06/26 08:41:45;;;;;;;6.70;2.40;;;;;;;;;;8261277;28;20061;-87
2022/06/26 08:45:55;;;;;;;3.58;2.33;;;;;;;;;;8263183;28;20093;-87
2022/06/26 08:50:02;;;;;;;9.45;2.88;;;;;;;;;;8254404;28;20065;-86
2022/06/26 08:54:14;;;;;;;4.72;2.60;;;;;;;;;;8271984;28;20507;-89
2022/06/26 08:58:57;;;;;;;4.70;2.40;;;;;;;;;;8247183;28;20182;-93
2022/06/26 09:03:06;;;;;;;11.10;2.83;;;;;;;;;;8259403;28;20053;-85
2022/06/26 09:07:12;;;;;;;3.60;2.35;;;;;;;;;;8261765;28;20805;-92
2022/06/26 09:11:17;;;;;;;5.32;2.42;;;;;;;;;;8258601;28;20050;-90
2022/06/26 09:15:26;;;;;;;4.10;2.22;;;;;;;;;;8335386;28;20053;-86
2022/06/26 09:19:36;;;;;;;4.18;2.30;;;;;;;;;;8315403;28;20421;-90
2022/06/26 09:23:54;;;;;;;5.90;2.35;;;;;;;;;;8321594;28;20391;-89
2022/06/26 09:28:07;;;;;;;4.40;2.15;;;;;;;;;;8325499;28;20041;-91
2022/06/26 09:32:15;;;;;;;4.10;2.25;;;;;;;;;;8327331;28;20561;-88
2022/06/26 09:36:29;;;;;;;3.83;2.53;;;;;;;;;;8335651;28;20048;-89
2022/06/26 09:40:46;;;;;;;5.45;2.58;;;;;;;;;;8299772;28;20084;-87
2022/06/26 09:45:10;;;;;;;3.38;2.20;;;;;;;;;;8327860;28;20069;-86
2022/06/26 09:49:15;;;;;;;5.13;2.30;;;;;;;;;;8333783;28;20041;-90
2022/06/26 09:53:36;;;;;;;;;;;;;;;;;;8328795;28;20128;-88
2022/06/26 09:58:18;;;;;;;3.35;2.30;;;;;;;;;;8331434;28;19932;-85
2022/06/26 10:06:51;;;;;;;6.22;2.50;;;;;;;;;;8221186;28;20891;-87
2022/06/26 10:11:02;;;;;;;3.70;2.30;;;;;;;;;;8286836;28;20084;-87
2022/06/26 10:15:12;;;;;;;6.53;2.38;;;;;;;;;;8321559;28;20049;-88
2022/06/26 10:19:38;;;;;;;4.88;2.50;;;;;;;;;;8320656;28;20042;-88
2022/06/26 10:23:50;;;;;;;3.10;2.40;;;;;;;;;;8313868;28;20128;-85
2022/06/26 10:27:59;;;;;;;4.95;2.67;;;;;;;;;;8314217;28;20049;-87
2022/06/26 10:32:03;;;;;;;3.90;2.47;;;;;;;;;;8314870;28;20038;-85
2022/06/26 10:36:06;;;;;;;7.15;2.63;;;;;;;;;;8293693;28;20636;-86
2022/06/26 10:42:52;;;;;;;5.07;2.60;;;;;;;;;;8272823;28;20486;-88
2022/06/26 10:44:57;;;;;;;7.00;2.58;;;;;;;;;;8276251;28;20069;-86
2022/06/26 10:49:01;;;;;;;5.35;2.30;;;;;;;;;;8288760;28;20482;-87
2022/06/26 10:53:19;;;;;;;4.20;2.42;;;;;;;;;;8290856;28;20628;-87
2022/06/26 10:57:34;;;;;;;4.68;2.60;;;;;;;;;;8292451;28;20105;-87
2022/06/26 11:01:40;;;;;;;3.78;2.55;;;;;;;;;;8294001;28;20049;-84
2022/06/26 11:05:55;;;;;;;3.42;2.30;;;;;;;;;;8290970;28;20371;-87
2022/06/26 11:09:58;;;;;;;6.20;2.80;;;;;;;;;;8289600;28;20046;-85
2022/06/26 11:14:32;;;;;;;3.40;2.45;;;;;;;;;;8292481;28;20042;-86
2022/06/26 11:18:43;;;;;;;7.35;2.38;;;;;;;;;;8288536;28;20417;-83
2022/06/26 11:22:48;;;;;;;3.45;2.35;;;;;;;;;;8290267;28;20401;-89
2022/06/26 11:32:28;;;;;;;3.10;2.30;;;;;;;;;;8292794;28;20053;-88
2022/06/26 11:37:00;;;;;;;3.72;2.40;;;;;;;;;;8295517;28;20057;-85
2022/06/26 11:41:10;;;;;;;5.90;2.40;;;;;;;;;;8302957;28;20048;-87
2022/06/26 11:45:54;;;;;;;4.97;2.42;;;;;;;;;;8292478;28;20558;-86
2022/06/26 11:50:41;;;;;;;3.47;2.40;;;;;;;;;;8298746;28;20140;-87
2022/06/26 11:55:01;;;;;;;3.67;2.38;;;;;;;;;;8302154;28;20383;-82
2022/06/26 11:59:06;;;;;;;4.53;2.40;;;;;;;;;;8301891;28;20148;-84
2022/06/26 12:03:18;;;;;;;3.75;2.30;;;;;;;;;;8294888;28;20057;-87
2022/06/26 12:12:21;;;;;;;4.35;2.55;;;;;;;;;;8301162;28;20049;-87
2022/06/26 12:16:28;;;;;;;9.18;2.28;;;;;;;;;;8290108;28;20042;-86
2022/06/26 12:21:00;;;;;;;4.93;2.42;;;;;;;;;;8294813;28;20065;-83
2022/06/26 12:25:42;;;;;;;3.38;2.40;;;;;;;;;;8299527;28;20402;-84
2022/06/26 12:35:45;;;;;;;3.70;2.35;;;;;;;;;;8296867;28;20056;-86
2022/06/26 12:40:04;;;;;;;4.22;2.30;;;;;;;;;;8322042;28;20068;-86
2022/06/26 12:44:16;;;;;;;4.10;2.10;;;;;;;;;;8324432;28;20485;-87
2022/06/26 12:48:25;;;;;;;3.72;2.53;;;;;;;;;;8324517;28;20140;-86
2022/06/26 12:52:32;;;;;;;4.85;2.30;;;;;;;;;;8328925;28;20717;-85
2022/06/26 12:56:36;;;;;;;2.72;2.20;;;;;;;;;;8328271;28;20719;-86
2022/06/26 13:00:41;;;;;;;4.35;2.65;;;;;;;;;;8333216;28;20390;-85
2022/06/26 13:04:46;;;;;;;4.60;2.42;;;;;;;;;;8325568;28;20048;-85
2022/06/26 13:08:52;;;;;;;4.43;2.85;;;;;;;;;;8319852;28;20045;-85
2022/06/26 13:12:55;;;;;;;4.03;2.58;;;;;;;;;;8330263;28;20045;-85
2022/06/26 13:16:58;;;;;;;3.97;2.67;;;;;;;;;;8320085;28;20111;-82
2022/06/26 13:21:02;;;;;;;4.30;2.75;;;;;;;;;;8317792;28;20049;-91
2022/06/26 13:25:11;;;;;;;4.20;2.67;;;;;;;;;;8323518;28;20469;-86
2022/06/26 13:29:30;;;;;;;6.80;2.80;;;;;;;;;;8323335;28;20131;-84
2022/06/26 13:33:47;;;;;;;3.70;2.28;;;;;;;;;;8322436;28;20156;-83
2022/06/26 13:37:52;;;;;;;5.72;2.80;;;;;;;;;;8329719;28;20061;-87
2022/06/26 13:41:56;;;;;;;5.90;2.60;;;;;;;;;;8306281;28;20048;-84
2022/06/26 13:46:00;;;;;;;4.80;2.90;;;;;;;;;;8327506;28;20045;-84
2022/06/26 13:50:03;;;;;;;4.32;2.70;;;;;;;;;;8327075;28;20068;-83
2022/06/26 13:54:09;;;;;;;7.70;2.95;;;;;;;;;;8330037;28;20469;-84
2022/06/26 13:58:15;;;;;;;6.60;3.13;;;;;;;;;;8330005;28;20041;-86
2022/06/26 14:02:18;;;;;;;5.32;2.67;;;;;;;;;;8327121;28;20053;-81
2022/06/26 14:06:22;;;;;;;5.93;2.97;;;;;;;;;;8325939;28;20422;-85
2022/06/26 14:10:26;;;;;;;4.95;2.88;;;;;;;;;;8738471;23;20053;-90
2022/06/26 14:14:30;;;;;;;5.28;3.00;;;;;;;;;;8368423;28;20048;-93
2022/06/26 14:18:34;;;;;;;6.05;2.88;;;;;;;;;;8365660;28;20040;-94
2022/06/26 14:27:01;;;;;;;4.15;2.90;;;;;;;;;;8362701;28;20412;-92
2022/06/26 14:31:07;;;;;;;7.72;3.20;;;;;;;;;;8368774;28;20049;-94
2022/06/26 14:35:12;;;;;;;7.38;2.90;;;;;;;;;;8369195;28;20048;-93
2022/06/26 14:39:15;;;;;;;5.32;2.90;;;;;;;;;;8367594;28;20451;-92
2022/06/26 14:43:19;;;;;;;4.40;2.97;;;;;;;;;;8363313;28;20442;-92
2022/06/26 14:47:28;;;;;;;5.85;2.95;;;;;;;;;;8370616;28;20048;-94
2022/06/26 14:51:33;;;;;;;6.67;3.47;;;;;;;;;;8366713;28;20044;-92
2022/06/26 14:55:38;;;;;;;5.25;3.05;;;;;;;;;;8369117;28;20095;-92
2022/06/26 14:59:42;;;;;;;5.07;3.25;;;;;;;;;;8368637;28;20041;-95
2022/06/26 15:08:07;;;;;;;4.13;2.88;;;;;;;;;;8358953;28;20092;-94
2022/06/26 15:12:13;;;;;;;5.15;3.00;;;;;;;;;;8352584;28;20064;-94
2022/06/26 15:16:17;;;;;;;6.50;3.33;;;;;;;;;;8368774;28;20272;-93
2022/06/26 15:20:22;;;;;;;5.85;3.05;;;;;;;;;;8367550;28;20045;-92
2022/06/26 15:24:25;;;;;;;5.10;2.97;;;;;;;;;;8371060;28;20051;-96
2022/06/26 15:32:48;;;;;;;4.97;3.00;;;;;;;;;;8360458;28;20064;-96
2022/06/26 15:41:16;;;;;;;3.38;2.80;;;;;;;;;;8355128;28;20059;-96
2022/06/26 15:45:20;;;;;;;4.88;3.00;;;;;;;;;;8370413;28;20048;-95
2022/06/26 15:49:23;;;;;;;4.38;2.92;;;;;;;;;;8367209;28;20454;-94
2022/06/26 15:53:28;;;;;;;5.25;3.25;;;;;;;;;;8367959;28;20045;-95
2022/06/26 15:57:31;;;;;;;5.88;3.38;;;;;;;;;;8371613;28;20052;-94
2022/06/26 16:01:40;;;;;;;4.68;3.20;;;;;;;;;;8376732;28;20044;-92
2022/06/26 16:05:43;;;;;;;4.45;3.10;;;;;;;;;;8375200;28;20511;-92
2022/06/26 16:09:57;;;;;;;5.38;3.70;;;;;;;;;;8372923;28;20050;-94
2022/06/26 16:14:01;;;;;;;3.88;2.92;;;;;;;;;;8332372;28;20041;-95
2022/06/26 16:18:06;;;;;;;4.63;3.22;;;;;;;;;;8314241;28;20058;-93
2022/06/26 16:26:32;;;;;;;8.55;3.67;;;;;;;;;;8311957;28;20038;-92
2022/06/26 16:30:36;;;;;;;8.10;4.95;;;;;;;;;;8330850;28;20041;-93
2022/06/26 16:34:39;;;;;;;7.25;3.80;;;;;;;;;;8332229;28;20048;-94
2022/06/26 16:38:45;;;;;;;5.47;3.95;;;;;;;;;;8325709;28;20045;-95
2022/06/26 16:42:52;;;;;;;6.45;3.40;;;;;;;;;;8343263;28;20071;-91
2022/06/26 16:46:56;;;;;;;8.32;3.88;;;;;;;;;;8336313;28;20045;-94
2022/06/26 16:51:04;;;;;;;5.55;3.33;;;;;;;;;;8318019;28;20511;-96
2022/06/26 16:55:15;;;;;;;5.40;3.03;;;;;;;;;;8319765;28;20041;-95
2022/06/26 17:03:43;;;;;;;7.10;3.60;;;;;;;;;;8309914;28;20046;-94
2022/06/26 17:12:09;;;;;;;5.88;3.45;;;;;;;;;;8318820;28;20042;-95
2022/06/26 17:16:15;;;;;;;4.07;3.30;;;;;;;;;;8315244;28;20050;-92
2022/06/26 17:20:25;;;;;;;6.20;3.50;;;;;;;;;;8327504;28;20409;-96
2022/06/26 17:24:28;;;;;;;4.53;3.15;;;;;;;;;;8330738;28;20056;-93
2022/06/26 17:28:36;;;;;;;7.05;3.15;;;;;;;;;;8325542;28;20323;-94
2022/06/26 17:32:41;;;;;;;5.07;3.30;;;;;;;;;;8322638;28;20041;-95
2022/06/26 17:36:46;;;;;;;5.82;3.70;;;;;;;;;;8320547;28;20046;-96
2022/06/26 17:40:52;;;;;;;4.97;3.80;;;;;;;;;;8317244;28;20046;-91
2022/06/26 17:44:55;;;;;;;6.97;4.13;;;;;;;;;;8319023;28;20048;-92
2022/06/26 17:49:02;;;;;;;4.85;3.47;;;;;;;;;;8308012;28;20048;-92
2022/06/26 17:53:06;;;;;;;7.88;3.42;;;;;;;;;;8309997;28;20053;-94
2022/06/26 17:57:12;;;;;;;8.25;5.40;;;;;;;;;;8326022;28;20046;-91
2022/06/26 18:01:26;;;;;;;8.15;4.82;;;;;;;;;;8315786;28;20049;-95
2022/06/26 18:05:31;;;;;;;14.13;6.45;;;;;;;;;;8302764;28;20053;-92
2022/06/26 18:09:36;;;;;;;10.40;5.03;;;;;;;;;;8316804;28;21897;-96
2022/06/26 18:13:42;;;;;;;8.35;5.47;;;;;;;;;;8328046;28;20516;-96
2022/06/26 18:17:46;;;;;;;6.13;3.45;;;;;;;;;;8335931;28;20474;-95
2022/06/26 18:21:51;;;;;;;5.75;3.85;;;;;;;;;;8332585;28;20038;-94
2022/06/26 18:25:55;;;;;;;10.65;5.90;;;;;;;;;;8333898;28;20049;-95
2022/06/26 18:30:12;;;;;;;7.40;5.90;;;;;;;;;;8335617;28;20405;-95
2022/06/26 18:34:16;;;;;;;9.02;6.07;;;;;;;;;;8321675;28;20057;-92
2022/06/26 18:38:22;;;;;;;11.20;9.38;;;;;;;;;;8327094;28;20050;-95
2022/06/26 18:42:28;;;;;;;10.07;8.13;;;;;;;;;;8347416;28;20045;-96
2022/06/26 18:46:32;;;;;;;9.35;4.85;;;;;;;;;;8318937;28;20042;-95
2022/06/26 18:50:37;;;;;;;12.93;7.03;;;;;;;;;;8332699;28;20045;-96
2022/06/26 18:54:42;;;;;;;15.05;8.05;;;;;;;;;;8330090;28;20069;-96
2022/06/26 18:58:47;;;;;;;13.02;8.40;;;;;;;;;;8322656;28;20049;-96
2022/06/26 19:02:51;;;;;;;12.35;7.40;;;;;;;;;;8312390;28;20038;-96
2022/06/26 19:06:57;;;;;;;10.23;6.70;;;;;;;;;;8332556;28;20413;-96
2022/06/26 19:11:02;;;;;;;9.80;6.90;;;;;;;;;;8332020;28;20053;-96
2022/06/26 19:15:05;;;;;;;20.33;10.60;;;;;;;;;;8348081;28;20103;-96
2022/06/26 19:19:09;;;;;;;21.88;11.20;;;;;;;;;;8352127;28;20048;-95
2022/06/26 19:23:13;;;;;;;7.95;5.13;;;;;;;;;;8884466;22;20064;-88
2022/06/26 19:27:19;;;;;;;8.25;4.30;;;;;;;;;;8361814;28;20049;-88
2022/06/26 19:31:23;;;;;;;7.13;4.50;;;;;;;;;;8351681;28;20052;-89
2022/06/26 19:35:27;;;;;;;7.70;4.03;;;;;;;;;;8342331;28;20040;-88
2022/06/26 19:39:31;;;;;;;6.57;3.83;;;;;;;;;;8347288;28;20060;-88
2022/06/26 19:43:36;;;;;;;7.43;4.45;;;;;;;;;;8350518;28;20044;-88
2022/06/26 19:47:42;;;;;;;5.72;3.67;;;;;;;;;;8350735;28;20503;-87
2022/06/26 19:51:45;;;;;;;6.85;4.07;;;;;;;;;;8344488;28;20055;-88
2022/06/26 19:55:49;;;;;;;6.20;4.05;;;;;;;;;;8342927;28;20485;-87
2022/06/26 19:59:55;;;;;;;7.65;4.38;;;;;;;;;;8338523;28;20045;-88
2022/06/26 20:03:59;;;;;;;6.20;4.00;;;;;;;;;;8357202;28;20052;-88
2022/06/26 20:08:02;;;;;;;5.43;3.88;;;;;;;;;;8352116;28;20079;-88
2022/06/26 20:12:06;;;;;;;5.20;3.78;;;;;;;;;;8356761;28;20041;-88
2022/06/26 20:16:12;;;;;;;7.13;4.07;;;;;;;;;;8346967;28;20276;-90
2022/06/26 20:20:15;;;;;;;6.00;4.07;;;;;;;;;;8352862;28;20040;-89
2022/06/26 20:24:18;;;;;;;6.25;3.83;;;;;;;;;;8352825;28;20060;-89
2022/06/26 20:28:22;;;;;;;7.20;4.15;;;;;;;;;;8350527;28;20052;-88
2022/06/26 20:32:27;;;;;;;5.25;3.90;;;;;;;;;;8349284;28;20054;-88
2022/06/26 20:36:30;;;;;;;6.07;4.13;;;;;;;;;;8332577;28;20048;-88
2022/06/26 20:40:34;;;;;;;10.15;4.63;;;;;;;;;;8351847;28;20049;-88
2022/06/26 20:44:38;;;;;;;6.22;4.68;;;;;;;;;;8343507;28;20460;-89
2022/06/26 20:48:43;;;;;;;5.88;4.43;;;;;;;;;;8351451;28;20045;-88
2022/06/26 20:52:46;;;;;;;7.82;4.13;;;;;;;;;;8352572;28;20045;-88
2022/06/26 20:56:52;;;;;;;8.07;4.25;;;;;;;;;;8353200;28;20636;-88
2022/06/26 21:00:56;;;;;;;4.97;4.10;;;;;;;;;;8339733;28;20152;-87
2022/06/26 21:05:02;;;;;;;6.07;4.45;;;;;;;;;;8349933;28;20045;-88
2022/06/26 21:09:07;;;;;;;6.93;4.47;;;;;;;;;;8340222;28;20044;-87
2022/06/26 21:13:09;;;;;;;5.35;4.32;;;;;;;;;;8339314;28;20124;-88
2022/06/26 21:17:15;;;;;;;5.53;4.25;;;;;;;;;;8339508;28;20340;-88
2022/06/26 21:21:20;;;;;;;8.10;4.65;;;;;;;;;;8346267;28;20045;-88
2022/06/26 21:25:23;;;;;;;6.88;4.93;;;;;;;;;;8349506;28;20060;-88
2022/06/26 21:29:26;;;;;;;7.38;4.70;;;;;;;;;;8353744;28;20049;-86
2022/06/26 21:33:28;;;;;;;10.88;4.90;;;;;;;;;;8348613;28;20143;-87
2022/06/26 21:37:33;;;;;;;7.97;5.05;;;;;;;;;;8341744;28;20044;-86
2022/06/26 21:41:36;;;;;;;6.55;4.78;;;;;;;;;;8342745;28;20485;-86
2022/06/26 21:45:38;;;;;;;15.73;5.03;;;;;;;;;;8340909;28;20487;-87
2022/06/26 21:49:42;;;;;;;7.60;5.13;;;;;;;;;;8341915;28;20072;-86
2022/06/26 21:53:46;;;;;;;8.82;4.90;;;;;;;;;;8359340;28;20055;-86
2022/06/26 21:57:49;;;;;;;9.20;5.10;;;;;;;;;;8344427;28;20053;-86
2022/06/26 22:01:52;;;;;;;7.38;5.05;;;;;;;;;;8351700;28;20037;-86
2022/06/26 22:05:54;;;;;;;8.90;5.30;;;;;;;;;;8339383;28;20080;-86
2022/06/26 22:09:58;;;;;;;8.23;5.32;;;;;;;;;;8332591;28;20045;-86
2022/06/26 22:14:02;;;;;;;8.25;5.25;;;;;;;;;;8343164;28;20069;-86
2022/06/26 22:18:06;;;;;;;6.28;4.95;;;;;;;;;;8341367;28;20041;-86
2022/06/26 22:22:10;;;;;;;6.55;5.15;;;;;;;;;;8342789;28;20060;-87
2022/06/26 22:30:34;;;;;;;;;;;;;;;;;;8336093;28;20528;-86
2022/06/26 22:34:37;;;;;;;7.75;5.70;;;;;;;;;;8331304;28;19971;-86
2022/06/26 22:38:40;;;;;;;8.57;5.88;;;;;;;;;;8342999;28;20069;-86
2022/06/26 22:42:44;;;;;;;8.68;6.53;;;;;;;;;;8345661;28;20112;-86
2022/06/26 22:46:47;;;;;;;9.45;6.28;;;;;;;;;;8338245;28;20046;-86
2022/06/26 22:50:51;;;;;;;9.13;6.20;;;;;;;;;;8350350;28;20526;-86
2022/06/26 22:54:53;;;;;;;9.75;5.60;;;;;;;;;;8349776;28;20051;-86
2022/06/26 22:58:57;;;;;;;10.07;6.07;;;;;;;;;;8341545;28;20478;-86
2022/06/26 23:03:00;;;;;;;9.43;6.05;;;;;;;;;;8341754;28;20045;-86
2022/06/26 23:07:02;;;;;;;8.18;5.88;;;;;;;;;;8338789;28;20490;-87
2022/06/26 23:11:05;;;;;;;13.57;6.32;;;;;;;;;;8346683;28;20551;-86
2022/06/26 23:15:10;;;;;;;8.65;6.10;;;;;;;;;;8351939;28;20045;-87
2022/06/26 23:19:13;;;;;;;7.60;5.43;;;;;;;;;;8346875;28;20052;-86
2022/06/26 23:23:15;;;;;;;12.63;6.15;;;;;;;;;;8342358;28;20061;-85
2022/06/26 23:27:18;;;;;;;8.13;6.35;;;;;;;;;;8342292;28;20041;-85
2022/06/26 23:31:22;;;;;;;7.47;5.75;;;;;;;;;;8337456;28;20495;-86
2022/06/26 23:35:25;;;;;;;7.55;5.90;;;;;;;;;;8349833;28;20045;-86
2022/06/26 23:39:30;;;;;;;10.40;6.32;;;;;;;;;;8350408;28;20440;-86
2022/06/26 23:43:33;;;;;;;7.75;5.78;;;;;;;;;;8343865;28;20050;-86
2022/06/26 23:47:36;;;;;;;7.57;6.10;;;;;;;;;;8344629;28;20041;-86
2022/06/26 23:51:39;;;;;;;8.73;6.57;;;;;;;;;;8355366;28;20047;-86
2022/06/26 23:55:42;;;;;;;9.63;6.93;;;;;;;;;;8342466;28;20053;-85
2022/06/26 23:59:45;;;;;;;11.05;6.35;;;;;;;;;;8341973;28;20485;-86
